createdAt,value
2018-04-02T00:00:51.846Z,49.10
2018-04-02T00:03:18.419Z,49.77
2018-04-02T00:05:45.006Z,49.97
2018-04-02T00:08:11.606Z,50.00
2018-04-02T00:10:38.528Z,50.23
2018-04-02T00:13:05.102Z,48.77
2018-04-02T00:15:31.674Z,49.10
2018-04-02T00:17:58.262Z,48.93
2018-04-02T00:20:24.835Z,46.77
2018-04-02T00:22:51.684Z,46.70
2018-04-02T00:25:18.262Z,45.23
2018-04-02T00:27:44.842Z,47.53
2018-04-02T00:30:11.419Z,46.30
2018-04-02T00:32:38.004Z,46.67
2018-04-02T00:35:04.922Z,46.30
2018-04-02T00:37:31.501Z,44.67
2018-04-02T00:39:58.079Z,43.80
2018-04-02T00:42:24.659Z,46.00
2018-04-02T00:44:51.230Z,45.27
2018-04-02T00:47:17.842Z,51.13
2018-04-02T00:49:44.424Z,51.00
2018-04-02T00:52:10.994Z,48.23
2018-04-02T00:54:37.578Z,48.33
2018-04-02T00:57:04.152Z,51.33
2018-04-02T00:59:30.795Z,53.70
2018-04-02T01:01:57.354Z,51.00
2018-04-02T01:04:23.931Z,50.33
2018-04-02T01:06:50.510Z,49.10
2018-04-02T01:09:17.095Z,50.00
2018-04-02T01:11:43.682Z,48.97
2018-04-02T01:14:10.263Z,49.60
2018-04-02T01:16:36.836Z,48.50
2018-04-02T01:19:03.436Z,52.30
2018-04-02T01:21:30.007Z,51.37
2018-04-02T01:23:56.620Z,51.50
2018-04-02T01:26:23.198Z,50.50
2018-04-02T01:28:49.776Z,49.23
2018-04-02T01:31:16.350Z,50.87
2018-04-02T01:33:42.927Z,50.30
2018-04-02T01:36:09.513Z,49.90
2018-04-02T01:38:36.092Z,50.30
2018-04-02T01:41:02.675Z,49.13
2018-04-02T01:43:29.293Z,49.50
2018-04-02T01:45:55.858Z,51.20
2018-04-02T01:48:22.470Z,52.47
2018-04-02T01:50:49.075Z,49.50
2018-04-02T01:53:15.662Z,49.20
2018-04-02T01:55:42.242Z,51.00
2018-04-02T01:58:08.826Z,50.90
2018-04-02T02:00:35.396Z,49.47
2018-04-02T02:03:01.976Z,48.87
2018-04-02T02:05:28.548Z,47.50
2018-04-02T02:07:55.122Z,47.00
2018-04-02T02:10:21.719Z,46.53
2018-04-02T02:12:48.298Z,48.70
2018-04-02T02:15:14.863Z,44.97
2018-04-02T02:17:41.464Z,46.97
2018-04-02T02:20:08.038Z,46.77
2018-04-02T02:22:34.615Z,47.77
2018-04-02T02:25:01.196Z,47.90
2018-04-02T02:27:27.775Z,49.97
2018-04-02T02:29:54.354Z,50.23
2018-04-02T02:32:20.931Z,53.13
2018-04-02T02:34:47.515Z,52.03
2018-04-02T02:37:14.098Z,50.23
2018-04-02T02:39:40.676Z,50.10
2018-04-02T02:42:07.263Z,49.53
2018-04-02T02:44:33.835Z,48.77
2018-04-02T02:47:00.415Z,47.90
2018-04-02T02:49:26.991Z,48.70
2018-04-02T02:51:53.980Z,51.70
2018-04-02T02:54:20.554Z,48.83
2018-04-02T02:56:47.126Z,49.03
2018-04-02T02:59:13.703Z,47.97
2018-04-02T03:01:40.267Z,48.10
2018-04-02T03:04:06.855Z,47.20
2018-04-02T03:06:33.431Z,48.83
2018-04-02T03:09:00.003Z,46.80
2018-04-02T03:11:26.580Z,48.20
2018-04-02T03:13:53.166Z,48.40
2018-04-02T03:16:19.739Z,49.00
2018-04-02T03:18:46.399Z,49.13
2018-04-02T03:21:12.954Z,50.13
2018-04-02T03:23:39.533Z,50.93
2018-04-02T03:26:06.119Z,51.60
2018-04-02T03:28:32.693Z,52.40
2018-04-02T03:30:59.284Z,52.50
2018-04-02T03:33:25.858Z,49.57
2018-04-02T03:35:52.455Z,50.87
2018-04-02T03:38:19.018Z,52.10
2018-04-02T03:40:45.590Z,50.90
2018-04-02T03:43:12.167Z,48.23
2018-04-02T03:45:38.742Z,49.17
2018-04-02T03:48:05.326Z,48.07
2018-04-02T03:50:31.899Z,48.53
2018-04-02T03:52:58.483Z,47.17
2018-04-02T03:55:25.059Z,49.37
2018-04-02T03:57:51.635Z,48.47
2018-04-02T04:00:18.215Z,47.23
2018-04-02T04:02:44.791Z,48.53
2018-04-02T04:05:11.375Z,48.43
2018-04-02T04:07:37.946Z,47.77
2018-04-02T04:10:04.548Z,49.70
2018-04-02T04:12:31.119Z,46.47
2018-04-02T04:14:57.689Z,47.57
2018-04-02T04:17:24.270Z,44.90
2018-04-02T04:19:50.838Z,46.00
2018-04-02T04:22:17.423Z,46.60
2018-04-02T04:24:43.994Z,46.10
2018-04-02T04:27:10.588Z,46.43
2018-04-02T04:29:37.159Z,46.13
2018-04-02T04:32:03.742Z,46.53
2018-04-02T04:34:30.366Z,47.27
2018-04-02T04:36:56.958Z,45.83
2018-04-02T04:39:23.538Z,44.77
2018-04-02T04:41:50.108Z,45.10
2018-04-02T04:44:16.726Z,44.87
2018-04-02T04:46:43.303Z,44.00
2018-04-02T04:49:09.880Z,44.40
2018-04-02T04:51:36.478Z,44.30
2018-04-02T04:54:03.136Z,43.77
2018-04-02T04:56:29.689Z,44.43
2018-04-02T04:58:57.259Z,43.80
2018-04-02T05:01:23.842Z,42.70
2018-04-02T05:03:50.415Z,42.97
2018-04-02T05:06:17.006Z,43.30
2018-04-02T05:08:43.567Z,43.97
2018-04-02T05:11:10.142Z,42.10
2018-04-02T05:13:36.843Z,43.77
2018-04-02T05:16:03.431Z,42.83
2018-04-02T05:18:29.994Z,43.73
2018-04-02T05:20:56.578Z,43.57
2018-04-02T05:23:23.159Z,41.47
2018-04-02T05:25:49.735Z,40.77
2018-04-02T05:28:16.364Z,43.57
2018-04-02T05:30:42.935Z,42.00
2018-04-02T05:33:09.508Z,43.03
2018-04-02T05:35:36.079Z,42.73
2018-04-02T05:38:02.661Z,43.20
2018-04-02T05:40:29.230Z,43.20
2018-04-02T05:42:55.804Z,44.37
2018-04-02T05:45:22.380Z,42.83
2018-04-02T05:47:49.002Z,42.70
2018-04-02T05:50:15.568Z,43.23
2018-04-02T05:52:42.143Z,43.00
2018-04-02T05:55:08.725Z,42.47
2018-04-02T05:57:35.296Z,42.87
2018-04-02T06:00:01.879Z,42.30
2018-04-02T06:02:28.496Z,41.30
2018-04-02T06:04:55.066Z,42.37
2018-04-02T06:07:21.643Z,40.13
2018-04-02T06:09:48.218Z,41.33
2018-04-02T06:12:14.795Z,40.60
2018-04-02T06:14:41.366Z,39.40
2018-04-02T06:17:07.942Z,38.67
2018-04-02T06:19:34.514Z,38.97
2018-04-02T06:22:01.174Z,39.00
2018-04-02T06:24:27.839Z,37.70
2018-04-02T06:26:54.416Z,37.37
2018-04-02T06:29:20.994Z,35.30
2018-04-02T06:31:47.570Z,35.63
2018-04-02T06:34:15.083Z,34.30
2018-04-02T06:36:41.654Z,35.10
2018-04-02T06:39:08.242Z,35.40
2018-04-02T06:41:34.819Z,34.87
2018-04-02T06:44:01.431Z,35.40
2018-04-02T06:46:28.307Z,34.10
2018-04-02T06:48:54.859Z,33.00
2018-04-02T06:51:21.434Z,32.63
2018-04-02T06:53:48.011Z,34.07
2018-04-02T06:56:14.582Z,33.23
2018-04-02T06:58:41.174Z,32.20
2018-04-02T07:01:07.760Z,31.97
2018-04-02T07:03:34.375Z,32.40
2018-04-02T07:06:00.961Z,33.80
2018-04-02T07:08:27.558Z,32.10
2018-04-02T07:10:54.107Z,31.93
2018-04-02T07:13:20.686Z,32.43
2018-04-02T07:15:47.262Z,31.63
2018-04-02T07:18:13.844Z,31.63
2018-04-02T07:20:41.272Z,30.23
2018-04-02T07:23:07.902Z,30.27
2018-04-02T07:25:34.431Z,30.20
2018-04-02T07:28:01.037Z,29.80
2018-04-02T07:30:27.610Z,28.40
2018-04-02T07:32:54.203Z,29.87
2018-04-02T07:35:20.782Z,29.33
2018-04-02T07:37:47.356Z,28.77
2018-04-02T07:40:13.981Z,28.67
2018-04-02T07:42:40.555Z,28.30
2018-04-02T07:45:07.156Z,27.70
2018-04-02T07:47:33.730Z,27.87
2018-04-02T07:50:00.302Z,25.50
2018-04-02T07:52:26.879Z,26.10
2018-04-02T07:54:53.452Z,26.23
2018-04-02T07:57:20.031Z,24.90
2018-04-02T07:59:46.606Z,25.23
2018-04-02T08:02:13.190Z,25.00
2018-04-02T08:04:39.763Z,22.70
2018-04-02T08:07:06.346Z,25.37
2018-04-02T08:09:32.918Z,25.33
2018-04-02T08:11:59.494Z,25.47
2018-04-02T08:14:26.103Z,23.70
2018-04-02T08:16:52.670Z,24.50
2018-04-02T08:19:19.254Z,22.87
2018-04-02T08:21:45.832Z,22.53
2018-04-02T08:24:12.706Z,23.70
2018-04-02T08:26:39.280Z,23.73
2018-04-02T08:29:05.866Z,21.83
2018-04-02T08:31:32.501Z,21.00
2018-04-02T08:33:59.058Z,21.67
2018-04-02T08:36:25.810Z,20.47
2018-04-02T08:38:52.422Z,19.20
2018-04-02T08:41:18.976Z,19.67
2018-04-02T08:43:45.562Z,19.97
2018-04-02T08:46:12.130Z,20.00
2018-04-02T08:48:38.706Z,20.27
2018-04-02T08:51:05.286Z,19.90
2018-04-02T08:53:31.862Z,19.27
2018-04-02T08:55:58.439Z,20.10
2018-04-02T08:58:25.035Z,19.43
2018-04-02T09:00:51.619Z,18.43
2018-04-02T09:03:18.191Z,18.03
2018-04-02T09:05:44.780Z,17.53
2018-04-02T09:08:11.408Z,16.00
2018-04-02T09:10:37.967Z,17.50
2018-04-02T09:13:04.557Z,18.03
2018-04-02T09:15:31.130Z,16.77
2018-04-02T09:17:57.706Z,16.37
2018-04-02T09:20:24.283Z,15.27
2018-04-02T09:22:50.867Z,17.23
2018-04-02T09:25:17.440Z,15.67
2018-04-02T09:27:44.019Z,15.30
2018-04-02T09:30:10.590Z,14.83
2018-04-02T09:32:37.162Z,14.77
2018-04-02T09:35:03.738Z,14.63
2018-04-02T09:37:30.309Z,13.23
2018-04-02T09:39:56.891Z,13.10
2018-04-02T09:42:23.491Z,11.70
2018-04-02T09:44:50.078Z,11.50
2018-04-02T09:47:16.659Z,11.67
2018-04-02T09:49:43.242Z,10.93
2018-04-02T09:52:09.890Z,11.20
2018-04-02T09:54:36.463Z,10.00
2018-04-02T09:57:03.525Z,8.80
2018-04-02T09:59:30.133Z,8.70
2018-04-02T10:01:56.682Z,8.30
2018-04-02T10:04:29.049Z,8.07
2018-04-02T10:06:55.572Z,8.10
2018-04-02T10:09:22.138Z,6.70
2018-04-02T10:11:48.706Z,7.57
2018-04-02T10:14:15.275Z,7.53
2018-04-02T10:16:41.839Z,6.90
2018-04-02T10:19:08.420Z,6.63
2018-04-02T10:21:34.981Z,5.13
2018-04-02T10:24:01.582Z,5.20
2018-04-02T10:26:28.114Z,4.53
2018-04-02T10:28:54.694Z,4.80
2018-04-02T10:31:21.283Z,4.10
2018-04-02T10:33:47.846Z,4.70
2018-04-02T10:36:14.418Z,4.73
2018-04-02T10:38:40.994Z,4.23
2018-04-02T10:41:07.579Z,4.70
2018-04-02T10:43:34.149Z,4.23
2018-04-02T10:46:00.723Z,4.40
2018-04-02T10:48:27.290Z,4.80
2018-04-02T10:50:53.871Z,3.90
2018-04-02T10:53:20.451Z,4.80
2018-04-02T10:55:47.010Z,4.27
2018-04-02T10:58:14.544Z,4.47
2018-04-02T11:00:41.122Z,5.00
2018-04-02T11:03:07.695Z,4.20
2018-04-02T11:05:34.303Z,4.40
2018-04-02T11:08:00.870Z,4.63
2018-04-02T11:10:27.442Z,4.93
2018-04-02T11:12:54.027Z,4.23
2018-04-02T11:15:20.623Z,4.67
2018-04-02T11:17:47.199Z,5.07
2018-04-02T11:20:13.776Z,4.60
2018-04-02T11:22:40.343Z,5.10
2018-04-02T11:25:06.910Z,4.80
2018-04-02T11:27:33.482Z,4.93
2018-04-02T11:30:00.063Z,5.13
2018-04-02T11:32:26.635Z,5.80
2018-04-02T11:34:53.207Z,5.40
2018-04-02T11:37:19.778Z,5.00
2018-04-02T11:39:46.338Z,4.70
2018-04-02T11:42:12.918Z,5.00
2018-04-02T11:44:40.403Z,4.87
2018-04-02T11:47:06.974Z,5.17
2018-04-02T11:49:33.536Z,5.20
2018-04-02T11:52:00.107Z,5.27
2018-04-02T11:54:26.670Z,4.93
2018-04-02T11:56:53.246Z,4.87
2018-04-02T11:59:19.817Z,4.70
2018-04-02T12:01:46.382Z,5.00
2018-04-02T12:04:12.956Z,5.63
2018-04-02T12:06:39.518Z,5.10
2018-04-02T12:09:06.095Z,5.33
2018-04-02T12:11:32.699Z,5.23
2018-04-02T12:13:59.270Z,5.40
2018-04-02T12:16:25.838Z,5.43
2018-04-02T12:18:53.418Z,5.00
2018-04-02T12:21:20.015Z,4.33
2018-04-02T12:23:46.602Z,5.03
2018-04-02T12:26:13.225Z,4.67
2018-04-02T12:28:39.732Z,4.53
2018-04-02T12:31:06.312Z,4.20
2018-04-02T12:33:32.876Z,4.00
2018-04-02T12:35:59.451Z,3.93
2018-04-02T12:38:26.020Z,3.40
2018-04-02T12:40:52.583Z,3.37
2018-04-02T12:43:19.206Z,3.10
2018-04-02T12:45:45.755Z,3.30
2018-04-02T12:48:12.324Z,3.20
2018-04-02T12:50:38.886Z,2.77
2018-04-02T12:53:05.454Z,2.80
2018-04-02T12:55:32.946Z,2.57
2018-04-02T12:57:59.522Z,2.37
2018-04-02T13:00:26.086Z,2.33
2018-04-02T13:02:52.661Z,3.03
2018-04-02T13:05:19.266Z,2.20
2018-04-02T13:07:45.826Z,3.30
2018-04-02T13:10:12.399Z,3.40
2018-04-02T13:12:38.963Z,3.03
2018-04-02T13:15:05.550Z,3.10
2018-04-02T13:17:32.147Z,2.90
2018-04-02T13:19:58.731Z,2.80
2018-04-02T13:22:25.299Z,3.40
2018-04-02T13:24:51.881Z,3.60
2018-04-02T13:27:18.433Z,3.27
2018-04-02T13:29:44.994Z,3.00
2018-04-02T13:32:11.574Z,2.90
2018-04-02T13:34:38.192Z,3.20
2018-04-02T13:37:05.067Z,3.40
2018-04-02T13:39:31.636Z,3.17
2018-04-02T13:41:58.202Z,2.90
2018-04-02T13:44:24.766Z,3.00
2018-04-02T13:46:51.331Z,2.43
2018-04-02T13:49:17.975Z,2.90
2018-04-02T13:51:44.549Z,3.17
2018-04-02T13:54:11.118Z,3.10
2018-04-02T13:56:37.683Z,3.60
2018-04-02T13:59:04.258Z,3.20
2018-04-02T14:01:30.822Z,3.35
2018-04-02T14:03:57.396Z,3.00
2018-04-02T14:06:23.998Z,3.10
2018-04-02T14:08:52.626Z,3.37
2018-04-02T14:11:19.237Z,3.43
2018-04-02T14:13:45.870Z,2.30
2018-04-02T14:16:12.419Z,2.20
2018-04-02T14:18:38.987Z,2.83
2018-04-02T14:21:05.939Z,2.60
2018-04-02T14:23:32.507Z,2.30
2018-04-02T14:25:59.086Z,2.57
2018-04-02T14:28:25.656Z,1.97
2018-04-02T14:30:52.224Z,1.90
2018-04-02T14:33:18.810Z,1.90
2018-04-02T14:35:45.358Z,1.60
2018-04-02T14:38:11.938Z,1.73
2018-04-02T14:40:38.503Z,2.00
2018-04-02T14:43:05.078Z,2.10
2018-04-02T14:45:31.716Z,1.77
2018-04-02T14:47:58.258Z,2.00
2018-04-02T14:50:24.826Z,2.03
2018-04-02T14:52:51.407Z,1.70
2018-04-02T14:55:17.971Z,1.60
2018-04-02T14:57:44.539Z,1.60
2018-04-02T15:00:11.114Z,1.80
2018-04-02T15:02:37.682Z,1.60
2018-04-02T15:05:04.251Z,1.70
2018-04-02T15:07:30.823Z,2.27
2018-04-02T15:09:57.389Z,2.00
2018-04-02T15:12:23.954Z,2.17
2018-04-02T15:14:50.526Z,2.20
2018-04-02T15:17:17.089Z,2.00
2018-04-02T15:19:43.650Z,2.23
2018-04-02T15:22:10.250Z,2.90
2018-04-02T15:24:36.816Z,2.50
2018-04-02T15:27:03.386Z,2.63
2018-04-02T15:29:29.962Z,2.77
2018-04-02T15:31:59.174Z,2.90
2018-04-02T15:34:25.746Z,2.90
2018-04-02T15:36:52.576Z,2.97
2018-04-02T15:39:19.520Z,2.80
2018-04-02T15:41:46.096Z,3.27
2018-04-02T15:44:13.354Z,3.70
2018-04-02T15:46:39.915Z,3.20
2018-04-02T15:49:06.511Z,3.20
2018-04-02T15:51:33.079Z,3.20
2018-04-02T15:53:59.646Z,3.17
2018-04-02T15:56:26.761Z,3.13
2018-04-02T15:58:53.326Z,3.40
2018-04-02T16:01:20.586Z,4.10
2018-04-02T16:03:47.238Z,3.30
2018-04-02T16:06:14.857Z,3.90
2018-04-02T16:08:41.426Z,3.30
2018-04-02T16:11:07.990Z,4.00
2018-04-02T16:13:34.562Z,3.23
2018-04-02T16:18:34.346Z,4.30
2018-04-02T16:21:00.919Z,3.83
2018-04-02T16:23:27.491Z,3.33
2018-04-02T16:25:54.059Z,3.63
2018-04-02T16:28:20.659Z,3.37
2018-04-02T16:30:49.267Z,3.53
2018-04-02T16:33:15.770Z,3.47
2018-04-02T16:35:42.343Z,3.60
2018-04-02T16:38:08.912Z,3.27
2018-04-02T16:40:35.482Z,3.10
2018-04-02T16:43:02.050Z,3.17
2018-04-02T16:45:28.666Z,3.57
2018-04-02T16:47:55.243Z,2.83
2018-04-02T16:50:21.814Z,2.30
2018-04-02T16:52:48.386Z,3.10
2018-04-02T16:55:15.152Z,3.07
2018-04-02T16:57:41.724Z,2.60
2018-04-02T17:00:08.286Z,2.50
2018-04-02T17:02:34.885Z,2.60
2018-04-02T17:05:01.465Z,2.40
2018-04-02T17:07:28.035Z,2.10
2018-04-02T17:09:54.598Z,2.00
2018-04-02T17:12:21.162Z,2.27
2018-04-02T17:14:47.732Z,2.23
2018-04-02T17:17:14.290Z,2.57
2018-04-02T17:19:41.519Z,2.43
2018-04-02T17:22:08.200Z,2.37
2018-04-02T17:24:34.787Z,2.57
2018-04-02T17:27:01.353Z,2.57
2018-04-02T17:29:27.918Z,2.80
2018-04-02T17:31:54.490Z,2.50
2018-04-02T17:34:21.054Z,2.63
2018-04-02T17:36:47.629Z,2.57
2018-04-02T17:39:14.206Z,2.37
2018-04-02T17:41:40.780Z,2.30
2018-04-02T17:44:07.378Z,2.70
2018-04-02T17:46:34.030Z,8.83
2018-04-02T17:49:00.690Z,3.53
2018-04-02T17:51:27.268Z,5.50
2018-04-02T17:53:53.834Z,2.83
2018-04-02T17:56:20.398Z,2.50
2018-04-02T17:58:46.986Z,2.33
2018-04-02T18:01:13.551Z,2.70
2018-04-02T18:03:41.082Z,2.57
2018-04-02T18:06:07.648Z,2.80
2018-04-02T18:08:34.211Z,2.87
2018-04-02T18:11:00.786Z,3.70
2018-04-02T18:13:27.458Z,3.27
2018-04-02T18:15:54.050Z,2.70
2018-04-02T18:18:20.618Z,3.13
2018-04-02T18:20:47.191Z,3.10
2018-04-02T18:23:13.755Z,3.10
2018-04-02T18:25:40.318Z,3.17
2018-04-02T18:28:06.896Z,2.57
2018-04-02T18:30:33.530Z,3.07
2018-04-02T18:33:00.083Z,3.33
2018-04-02T18:35:26.650Z,3.10
2018-04-02T18:37:53.223Z,3.00
2018-04-02T18:40:19.794Z,3.30
2018-04-02T18:42:46.362Z,3.43
2018-04-02T18:45:12.938Z,3.30
2018-04-02T18:47:39.547Z,3.60
2018-04-02T18:50:06.099Z,3.70
2018-04-02T18:52:32.668Z,3.30
2018-04-02T18:54:59.230Z,3.43
2018-04-02T18:57:25.798Z,3.50
2018-04-02T18:59:52.405Z,3.33
2018-04-02T19:02:18.958Z,3.50
2018-04-02T19:04:45.811Z,3.70
2018-04-02T19:07:12.445Z,4.00
2018-04-02T19:09:39.022Z,4.27
2018-04-02T19:12:05.616Z,4.70
2018-04-02T19:14:32.183Z,4.20
2018-04-02T19:16:58.799Z,4.27
2018-04-02T19:19:25.358Z,4.13
2018-04-02T19:21:51.948Z,5.10
2018-04-02T19:24:18.527Z,4.30
2018-04-02T19:26:45.395Z,4.50
2018-04-02T19:29:11.961Z,3.80
2018-04-02T19:31:38.526Z,4.83
2018-04-02T19:34:05.091Z,4.60
2018-04-02T19:36:31.662Z,4.90
2018-04-02T19:38:58.232Z,4.53
2018-04-02T19:41:24.802Z,4.50
2018-04-02T19:43:51.375Z,4.87
2018-04-02T19:46:17.946Z,4.47
2018-04-02T19:48:44.526Z,4.80
2018-04-02T19:51:11.090Z,4.40
2018-04-02T19:53:37.660Z,4.40
2018-04-02T19:56:04.230Z,4.67
2018-04-02T19:58:30.798Z,4.70
2018-04-02T20:00:57.363Z,4.43
2018-04-02T20:03:23.924Z,4.40
2018-04-02T20:05:50.492Z,4.50
2018-04-02T20:08:17.056Z,4.40
2018-04-02T20:10:43.615Z,4.60
2018-04-02T20:13:10.215Z,4.53
2018-04-02T20:15:36.742Z,4.43
2018-04-02T20:18:03.329Z,4.30
2018-04-02T20:20:31.628Z,4.50
2018-04-02T20:22:58.233Z,4.50
2018-04-02T20:25:24.767Z,3.67
2018-04-02T20:27:51.341Z,4.40
2018-04-02T20:30:17.914Z,4.30
2018-04-02T20:32:44.479Z,4.20
2018-04-02T20:35:11.058Z,3.77
2018-04-02T20:37:37.635Z,4.23
2018-04-02T20:40:04.219Z,3.63
2018-04-02T20:42:30.819Z,3.60
2018-04-02T20:44:57.378Z,3.53
2018-04-02T20:47:23.942Z,3.77
2018-04-02T20:49:50.535Z,3.97
2018-04-02T20:52:17.094Z,3.50
2018-04-02T20:54:43.659Z,4.03
2018-04-02T20:57:10.235Z,3.83
2018-04-02T20:59:36.791Z,3.80
2018-04-02T21:02:03.362Z,3.50
2018-04-02T21:04:30.023Z,3.50
2018-04-02T21:06:56.582Z,3.60
2018-04-02T21:09:23.150Z,3.70
2018-04-02T21:12:06.385Z,3.47
2018-04-02T21:14:32.950Z,3.30
2018-04-02T21:16:59.530Z,3.90
2018-04-02T21:19:26.103Z,3.30
2018-04-02T21:21:52.671Z,3.70
2018-04-02T21:24:19.247Z,3.33
2018-04-02T21:26:45.813Z,3.30
2018-04-02T21:29:12.379Z,3.17
2018-04-02T21:31:38.955Z,3.30
2018-04-02T21:34:05.518Z,3.13
2018-04-02T21:36:32.081Z,3.03
2018-04-02T21:38:58.662Z,3.07
2018-04-02T21:41:25.252Z,3.60
2018-04-02T21:43:51.965Z,3.27
2018-04-02T21:46:18.553Z,2.90
2018-04-02T21:48:45.128Z,3.20
2018-04-02T21:51:11.691Z,3.23
2018-04-02T21:53:38.302Z,3.37
2018-04-02T21:56:04.858Z,2.60
2018-04-02T21:58:31.422Z,2.50
2018-04-02T22:00:57.999Z,3.10
2018-04-02T22:03:24.566Z,3.00
2018-04-02T22:05:51.124Z,2.57
2018-04-02T22:08:17.695Z,2.50
2018-04-02T22:10:44.262Z,2.67
2018-04-02T22:13:10.830Z,3.10
2018-04-02T22:15:37.402Z,2.83
2018-04-02T22:18:03.995Z,2.87
2018-04-02T22:20:30.560Z,2.90
2018-04-02T22:22:57.119Z,2.83
2018-04-02T22:25:23.685Z,2.90
2018-04-02T22:27:50.346Z,2.53
2018-04-02T22:30:16.947Z,2.50
2018-04-02T22:32:43.521Z,2.63
2018-04-02T22:35:10.087Z,2.40
2018-04-02T22:37:36.655Z,2.77
2018-04-02T22:40:03.231Z,2.67
2018-04-02T22:42:29.927Z,2.63
2018-04-02T22:44:56.490Z,2.50
2018-04-02T22:47:23.070Z,2.77
2018-04-02T22:49:49.674Z,2.80
2018-04-02T22:52:16.266Z,2.70
2018-04-02T22:54:42.838Z,2.60
2018-04-02T22:57:09.424Z,2.90
2018-04-02T22:59:36.038Z,2.87
2018-04-02T23:02:02.608Z,2.50
2018-04-02T23:04:29.158Z,2.60
2018-04-02T23:06:55.757Z,3.00
2018-04-02T23:09:22.371Z,2.70
2018-04-02T23:11:48.938Z,2.70
2018-04-02T23:14:15.511Z,2.53
2018-04-02T23:16:42.131Z,2.57
2018-04-02T23:19:08.650Z,2.77
2018-04-02T23:21:35.215Z,2.80
2018-04-02T23:24:01.795Z,3.00
2018-04-02T23:26:28.379Z,2.70
2018-04-02T23:28:54.954Z,3.10
2018-04-02T23:31:21.519Z,2.60
2018-04-02T23:33:48.083Z,3.50
2018-04-02T23:36:14.659Z,2.73
2018-04-02T23:38:41.226Z,2.60
2018-04-02T23:41:07.801Z,2.87
2018-04-02T23:43:34.359Z,2.97
2018-04-02T23:46:00.986Z,2.93
2018-04-02T23:48:27.546Z,2.93
2018-04-02T23:50:54.110Z,3.10
2018-04-02T23:53:20.675Z,2.90
2018-04-02T23:55:47.239Z,2.90
2018-04-02T23:58:13.822Z,3.70
